createdAt,value
2023-03-24T00:00:22.268Z,12.01
2023-03-24T00:01:22.242Z,11.94
2023-03-24T00:02:22.277Z,11.90
2023-03-24T00:03:22.356Z,11.90
2023-03-24T00:04:22.248Z,11.98
2023-03-24T00:05:22.230Z,11.95
2023-03-24T00:06:22.182Z,11.96
2023-03-24T00:07:22.184Z,11.98
2023-03-24T00:08:22.175Z,11.98
2023-03-24T00:09:22.150Z,11.98
2023-03-24T00:10:22.157Z,11.98
2023-03-24T00:11:22.161Z,12.01
2023-03-24T00:12:22.125Z,11.94
2023-03-24T00:13:22.113Z,11.88
2023-03-24T00:14:22.140Z,11.99
2023-03-24T00:15:22.110Z,11.98
2023-03-24T00:16:22.325Z,11.86
2023-03-24T00:17:22.083Z,11.98
2023-03-24T00:18:22.066Z,11.83
2023-03-24T00:19:22.090Z,11.94
2023-03-24T00:20:32.579Z,11.98
2023-03-24T00:21:21.989Z,11.94
2023-03-24T00:22:22.048Z,11.96
2023-03-24T00:23:22.001Z,11.94
2023-03-24T00:24:22.001Z,11.91
2023-03-24T00:25:21.945Z,11.90
2023-03-24T00:26:21.979Z,12.02
2023-03-24T00:27:21.964Z,12.05
2023-03-24T00:28:21.952Z,12.04
2023-03-24T00:29:21.972Z,11.96
2023-03-24T00:30:21.903Z,12.05
2023-03-24T00:31:21.991Z,12.02
2023-03-24T00:32:21.871Z,11.99
2023-03-24T00:33:21.872Z,12.05
2023-03-24T00:34:21.922Z,11.86
2023-03-24T00:35:21.915Z,11.98
2023-03-24T00:36:21.886Z,11.95
2023-03-24T00:37:21.861Z,11.94
2023-03-24T00:38:21.871Z,11.98
2023-03-24T00:39:21.842Z,11.98
2023-03-24T00:40:21.845Z,11.91
2023-03-24T00:41:21.810Z,11.91
2023-03-24T00:42:21.828Z,11.94
2023-03-24T00:43:21.788Z,11.99
2023-03-24T00:44:21.750Z,11.90
2023-03-24T00:45:21.754Z,11.85
2023-03-24T00:46:21.825Z,11.94
2023-03-24T00:47:21.759Z,11.91
2023-03-24T00:48:21.804Z,12.04
2023-03-24T00:49:21.737Z,11.90
2023-03-24T00:50:21.736Z,11.91
2023-03-24T00:51:21.722Z,11.99
2023-03-24T00:52:21.757Z,12.02
2023-03-24T00:53:21.707Z,12.01
2023-03-24T00:54:21.692Z,11.98
2023-03-24T00:55:21.821Z,12.04
2023-03-24T00:56:21.675Z,11.90
2023-03-24T00:57:21.736Z,12.05
2023-03-24T00:58:21.641Z,11.90
2023-03-24T00:59:21.684Z,11.99
2023-03-24T01:00:21.627Z,12.02
2023-03-24T01:01:21.640Z,11.99
2023-03-24T01:02:21.673Z,12.09
2023-03-24T01:03:21.586Z,11.94
2023-03-24T01:04:21.558Z,12.02
2023-03-24T01:05:21.582Z,12.04
2023-03-24T01:06:21.562Z,12.07
2023-03-24T01:07:21.555Z,12.02
2023-03-24T01:08:21.572Z,11.96
2023-03-24T01:09:21.530Z,12.02
2023-03-24T01:10:21.559Z,11.95
2023-03-24T01:11:21.509Z,12.02
2023-03-24T01:12:21.495Z,11.94
2023-03-24T01:13:21.494Z,11.98
2023-03-24T01:14:21.483Z,11.95
2023-03-24T01:15:21.475Z,12.02
2023-03-24T01:16:21.479Z,12.01
2023-03-24T01:17:21.461Z,12.04
2023-03-24T01:18:21.477Z,12.07
2023-03-24T01:19:21.432Z,12.16
2023-03-24T01:20:21.395Z,12.05
2023-03-24T01:21:21.423Z,12.07
2023-03-24T01:22:21.437Z,11.94
2023-03-24T01:23:21.429Z,12.09
2023-03-24T01:24:21.353Z,12.09
2023-03-24T01:25:21.392Z,12.10
2023-03-24T01:26:21.352Z,12.05
2023-03-24T01:27:21.388Z,12.07
2023-03-24T01:28:21.373Z,12.13
2023-03-24T01:29:21.320Z,12.16
2023-03-24T01:30:21.359Z,12.07
2023-03-24T01:31:21.346Z,12.10
2023-03-24T01:32:21.317Z,12.16
2023-03-24T01:33:21.314Z,12.05
2023-03-24T01:34:22.268Z,12.16
2023-03-24T01:35:21.275Z,12.09
2023-03-24T01:36:21.288Z,12.10
2023-03-24T01:37:21.233Z,12.07
2023-03-24T01:38:21.271Z,12.09
2023-03-24T01:39:21.261Z,12.12
2023-03-24T01:40:21.222Z,12.01
2023-03-24T01:41:21.247Z,12.04
2023-03-24T01:42:21.212Z,12.04
2023-03-24T01:43:21.184Z,12.02
2023-03-24T01:44:21.179Z,12.01
2023-03-24T01:45:21.228Z,11.95
2023-03-24T01:46:21.273Z,12.01
2023-03-24T01:47:21.156Z,12.02
2023-03-24T01:48:21.152Z,12.05
2023-03-24T01:49:21.139Z,12.04
2023-03-24T01:50:21.134Z,12.01
2023-03-24T01:51:21.136Z,12.04
2023-03-24T01:52:21.186Z,12.01
2023-03-24T01:53:21.112Z,12.13
2023-03-24T01:54:21.099Z,12.05
2023-03-24T01:55:21.061Z,12.02
2023-03-24T01:56:21.048Z,12.12
2023-03-24T01:57:22.058Z,12.10
2023-03-24T01:58:21.077Z,12.12
2023-03-24T01:59:21.034Z,12.09
2023-03-24T02:00:21.040Z,12.04
2023-03-24T02:01:52.932Z,12.10
2023-03-24T02:02:21.032Z,12.13
2023-03-24T02:03:21.070Z,12.19
2023-03-24T02:04:21.030Z,12.09
2023-03-24T02:05:20.999Z,12.14
2023-03-24T02:06:20.958Z,12.13
2023-03-24T02:07:21.037Z,12.17
2023-03-24T02:08:20.942Z,12.16
2023-03-24T02:09:20.988Z,12.13
2023-03-24T02:10:20.949Z,12.09
2023-03-24T02:11:20.924Z,12.12
2023-03-24T02:12:20.908Z,12.05
2023-03-24T02:13:20.894Z,12.14
2023-03-24T02:14:20.918Z,12.12
2023-03-24T02:15:20.880Z,12.12
2023-03-24T02:16:20.902Z,12.13
2023-03-24T02:17:20.846Z,12.14
2023-03-24T02:18:20.863Z,12.12
2023-03-24T02:19:21.618Z,12.28
2023-03-24T02:20:20.831Z,12.14
2023-03-24T02:21:20.816Z,12.17
2023-03-24T02:22:20.798Z,12.17
2023-03-24T02:23:20.817Z,12.13
2023-03-24T02:24:20.810Z,12.14
2023-03-24T02:25:20.777Z,12.19
2023-03-24T02:26:20.775Z,12.17
2023-03-24T02:27:20.746Z,12.16
2023-03-24T02:28:20.726Z,12.19
2023-03-24T02:29:20.796Z,12.19
2023-03-24T02:30:20.710Z,12.10
2023-03-24T02:31:20.788Z,12.14
2023-03-24T02:32:20.710Z,12.16
2023-03-24T02:33:20.720Z,12.14
2023-03-24T02:34:20.691Z,12.16
2023-03-24T02:35:20.755Z,12.23
2023-03-24T02:36:20.720Z,12.28
2023-03-24T02:37:20.670Z,12.17
2023-03-24T02:38:20.698Z,12.23
2023-03-24T02:39:20.644Z,12.14
2023-03-24T02:40:20.623Z,12.16
2023-03-24T02:41:20.630Z,12.12
2023-03-24T02:42:20.635Z,12.10
2023-03-24T02:43:20.629Z,12.07
2023-03-24T02:44:20.576Z,12.12
2023-03-24T02:45:20.593Z,12.14
2023-03-24T02:46:20.586Z,12.07
2023-03-24T02:47:20.606Z,12.07
2023-03-24T02:48:20.622Z,12.07
2023-03-24T02:49:20.518Z,12.05
2023-03-24T02:50:20.585Z,12.12
2023-03-24T02:51:20.529Z,12.13
2023-03-24T02:52:20.511Z,12.04
2023-03-24T02:53:20.515Z,12.07
2023-03-24T02:54:20.493Z,12.02
2023-03-24T02:55:20.489Z,12.10
2023-03-24T02:56:20.496Z,12.09
2023-03-24T02:57:20.507Z,12.02
2023-03-24T02:58:20.458Z,12.14
2023-03-24T02:59:20.432Z,12.02
2023-03-24T03:00:20.547Z,12.12
2023-03-24T03:01:20.439Z,12.09
2023-03-24T03:02:20.496Z,12.02
2023-03-24T03:03:20.460Z,12.04
2023-03-24T03:04:20.435Z,11.99
2023-03-24T03:05:20.386Z,12.09
2023-03-24T03:06:20.416Z,12.01
2023-03-24T03:07:20.441Z,11.99
2023-03-24T03:08:20.341Z,11.96
2023-03-24T03:09:20.396Z,11.98
2023-03-24T03:10:20.336Z,11.98
2023-03-24T03:11:20.395Z,12.04
2023-03-24T03:12:20.321Z,11.95
2023-03-24T03:13:20.293Z,12.07
2023-03-24T03:14:20.283Z,11.99
2023-03-24T03:15:20.332Z,12.04
2023-03-24T03:16:20.380Z,12.04
2023-03-24T03:17:20.289Z,11.99
2023-03-24T03:18:20.254Z,11.99
2023-03-24T03:19:20.247Z,12.02
2023-03-24T03:20:20.330Z,11.91
2023-03-24T03:21:20.223Z,11.98
2023-03-24T03:22:20.218Z,12.01
2023-03-24T03:23:20.216Z,12.01
2023-03-24T03:24:20.223Z,11.90
2023-03-24T03:25:20.185Z,12.07
2023-03-24T03:26:20.185Z,11.96
2023-03-24T03:27:20.177Z,12.02
2023-03-24T03:28:20.146Z,12.05
2023-03-24T03:29:20.165Z,12.02
2023-03-24T03:30:20.150Z,12.04
2023-03-24T03:31:20.177Z,12.07
2023-03-24T03:32:20.097Z,12.02
2023-03-24T03:33:20.110Z,12.09
2023-03-24T03:34:20.087Z,11.95
2023-03-24T03:35:20.110Z,12.04
2023-03-24T03:36:20.073Z,12.09
2023-03-24T03:37:20.080Z,11.94
2023-03-24T03:38:20.073Z,11.90
2023-03-24T03:39:20.101Z,11.94
2023-03-24T03:40:20.055Z,11.76
2023-03-24T03:41:20.035Z,11.80
2023-03-24T03:42:20.050Z,11.80
2023-03-24T03:43:20.017Z,11.86
2023-03-24T03:44:19.990Z,11.88
2023-03-24T03:45:20.001Z,11.88
2023-03-24T03:46:20.069Z,11.88
2023-03-24T03:47:20.056Z,11.88
2023-03-24T03:48:19.984Z,11.94
2023-03-24T03:49:19.950Z,11.94
2023-03-24T03:50:19.962Z,11.86
2023-03-24T03:51:19.953Z,11.80
2023-03-24T03:52:19.948Z,11.98
2023-03-24T03:53:19.974Z,11.80
2023-03-24T03:54:19.894Z,11.85
2023-03-24T03:55:19.966Z,11.86
2023-03-24T03:56:19.897Z,11.80
2023-03-24T03:57:19.900Z,11.95
2023-03-24T03:58:19.898Z,11.82
2023-03-24T03:59:19.865Z,11.82
2023-03-24T04:00:19.865Z,11.88
2023-03-24T04:01:19.858Z,11.78
2023-03-24T04:02:19.834Z,11.80
2023-03-24T04:03:19.931Z,11.78
2023-03-24T04:04:19.854Z,11.76
2023-03-24T04:05:19.852Z,11.75
2023-03-24T04:06:19.833Z,11.86
2023-03-24T04:07:19.819Z,11.72
2023-03-24T04:08:19.833Z,11.82
2023-03-24T04:09:19.779Z,11.80
2023-03-24T04:10:19.728Z,11.78
2023-03-24T04:11:19.760Z,11.82
2023-03-24T04:12:19.699Z,11.79
2023-03-24T04:13:19.703Z,11.80
2023-03-24T04:14:19.713Z,11.79
2023-03-24T04:15:19.681Z,11.69
2023-03-24T04:16:19.721Z,11.76
2023-03-24T04:17:19.697Z,11.76
2023-03-24T04:18:19.664Z,11.76
2023-03-24T04:19:19.670Z,11.76
2023-03-24T04:20:19.642Z,11.73
2023-03-24T04:21:19.665Z,11.69
2023-03-24T04:22:19.634Z,11.70
2023-03-24T04:23:19.627Z,11.82
2023-03-24T04:24:19.611Z,11.67
2023-03-24T04:25:19.633Z,11.80
2023-03-24T04:26:19.568Z,11.67
2023-03-24T04:27:19.642Z,11.80
2023-03-24T04:28:19.566Z,11.80
2023-03-24T04:29:19.583Z,11.90
2023-03-24T04:30:19.584Z,11.83
2023-03-24T04:31:19.589Z,11.82
2023-03-24T04:32:19.515Z,11.78
2023-03-24T04:33:20.535Z,11.73
2023-03-24T04:34:19.524Z,11.75
2023-03-24T04:35:19.515Z,11.75
2023-03-24T04:36:19.510Z,11.85
2023-03-24T04:37:19.471Z,11.78
2023-03-24T04:38:19.501Z,11.73
2023-03-24T04:39:19.451Z,11.70
2023-03-24T04:40:19.473Z,11.80
2023-03-24T04:41:19.466Z,11.88
2023-03-24T04:42:19.430Z,11.73
2023-03-24T04:43:19.405Z,11.80
2023-03-24T04:44:19.461Z,11.65
2023-03-24T04:45:19.412Z,11.78
2023-03-24T04:46:19.451Z,11.85
2023-03-24T04:47:19.378Z,11.79
2023-03-24T04:48:19.381Z,11.88
2023-03-24T04:49:19.422Z,11.80
2023-03-24T04:50:19.325Z,11.88
2023-03-24T04:51:19.344Z,11.72
2023-03-24T04:52:19.367Z,11.85
2023-03-24T04:53:19.298Z,11.82
2023-03-24T04:54:19.338Z,11.85
2023-03-24T04:55:19.281Z,11.91
2023-03-24T04:56:19.289Z,11.79
2023-03-24T04:57:19.285Z,11.95
2023-03-24T04:58:19.263Z,11.88
2023-03-24T04:59:19.297Z,11.80
2023-03-24T05:00:19.234Z,11.88
2023-03-24T05:01:19.263Z,11.83
2023-03-24T05:02:21.581Z,11.86
2023-03-24T05:03:19.252Z,11.96
2023-03-24T05:04:20.266Z,11.79
2023-03-24T05:05:19.182Z,11.83
2023-03-24T05:06:19.208Z,11.86
2023-03-24T05:07:19.171Z,11.88
2023-03-24T05:08:19.182Z,11.91
2023-03-24T05:09:19.189Z,11.80
2023-03-24T05:10:21.755Z,11.91
2023-03-24T05:11:19.160Z,11.80
2023-03-24T05:12:19.122Z,11.83
2023-03-24T05:13:19.179Z,11.85
2023-03-24T05:14:20.124Z,11.83
2023-03-24T05:15:19.081Z,11.75
2023-03-24T05:16:19.130Z,11.80
2023-03-24T05:17:19.079Z,11.80
2023-03-24T05:18:19.101Z,11.85
2023-03-24T05:19:19.062Z,11.79
2023-03-24T05:20:19.038Z,11.78
2023-03-24T05:21:19.070Z,11.80
2023-03-24T05:22:19.012Z,11.80
2023-03-24T05:23:19.011Z,11.80
2023-03-24T05:24:19.023Z,11.76
2023-03-24T05:25:18.988Z,11.88
2023-03-24T05:26:18.993Z,11.80
2023-03-24T05:27:19.004Z,11.83
2023-03-24T05:28:18.985Z,11.80
2023-03-24T05:29:18.946Z,11.76
2023-03-24T05:30:18.957Z,11.82
2023-03-24T05:31:18.971Z,11.80
2023-03-24T05:32:18.933Z,11.79
2023-03-24T05:33:18.930Z,11.75
2023-03-24T05:34:18.930Z,11.72
2023-03-24T05:35:19.952Z,11.79
2023-03-24T05:36:18.954Z,11.80
2023-03-24T05:37:18.881Z,11.83
2023-03-24T05:38:18.915Z,11.82
2023-03-24T05:39:18.842Z,11.98
2023-03-24T05:40:18.924Z,11.88
2023-03-24T05:41:18.841Z,11.78
2023-03-24T05:42:18.866Z,11.83
2023-03-24T05:43:18.825Z,11.80
2023-03-24T05:44:18.839Z,11.90
2023-03-24T05:45:18.822Z,11.80
2023-03-24T05:46:18.853Z,11.82
2023-03-24T05:47:18.781Z,11.96
2023-03-24T05:48:18.791Z,11.98
2023-03-24T05:49:18.784Z,11.98
2023-03-24T05:50:18.749Z,11.94
2023-03-24T05:51:18.776Z,11.91
2023-03-24T05:52:18.728Z,11.90
2023-03-24T05:53:18.727Z,11.94
2023-03-24T05:54:18.732Z,11.96
2023-03-24T05:55:18.714Z,11.95
2023-03-24T05:56:18.676Z,12.01
2023-03-24T05:57:18.672Z,12.05
2023-03-24T05:58:18.643Z,11.95
2023-03-24T05:59:18.689Z,11.99
2023-03-24T06:00:18.657Z,11.90
2023-03-24T06:01:18.639Z,11.95
2023-03-24T06:02:18.665Z,11.90
2023-03-24T06:03:18.783Z,12.01
2023-03-24T06:04:18.620Z,11.86
2023-03-24T06:05:18.591Z,11.86
2023-03-24T06:06:18.651Z,11.94
2023-03-24T06:07:18.574Z,11.88
2023-03-24T06:08:18.604Z,11.91
2023-03-24T06:09:18.568Z,11.88
2023-03-24T06:10:18.564Z,11.98
2023-03-24T06:11:18.557Z,11.94
2023-03-24T06:12:18.538Z,11.98
2023-03-24T06:13:18.525Z,11.96
2023-03-24T06:14:18.524Z,12.01
2023-03-24T06:15:18.507Z,12.04
2023-03-24T06:16:18.494Z,12.01
2023-03-24T06:17:18.503Z,12.04
2023-03-24T06:18:18.534Z,11.96
2023-03-24T06:19:18.471Z,12.02
2023-03-24T06:20:18.436Z,11.95
2023-03-24T06:21:18.437Z,12.01
2023-03-24T06:22:18.533Z,12.01
2023-03-24T06:23:18.461Z,12.02
2023-03-24T06:24:18.450Z,12.12
2023-03-24T06:25:18.418Z,12.19
2023-03-24T06:26:18.383Z,12.13
2023-03-24T06:27:18.393Z,12.14
2023-03-24T06:28:18.377Z,12.14
2023-03-24T06:29:18.458Z,12.16
2023-03-24T06:30:18.372Z,12.28
2023-03-24T06:31:18.482Z,12.31
2023-03-24T06:32:18.396Z,12.35
2023-03-24T06:33:18.368Z,12.38
2023-03-24T06:34:18.481Z,12.35
2023-03-24T06:35:18.289Z,12.23
2023-03-24T06:36:18.268Z,12.34
2023-03-24T06:37:18.292Z,12.28
2023-03-24T06:38:18.290Z,12.34
2023-03-24T06:39:18.279Z,12.47
2023-03-24T06:40:18.283Z,12.41
2023-03-24T06:41:18.237Z,12.45
2023-03-24T06:42:18.223Z,12.42
2023-03-24T06:43:18.228Z,12.47
2023-03-24T06:44:18.231Z,12.41
2023-03-24T06:45:18.205Z,12.54
2023-03-24T06:46:18.278Z,12.54
2023-03-24T06:47:18.229Z,12.53
2023-03-24T06:48:18.159Z,12.62
2023-03-24T06:49:18.203Z,12.57
2023-03-24T06:50:18.199Z,12.59
2023-03-24T06:51:18.165Z,12.64
2023-03-24T06:52:18.133Z,12.57
2023-03-24T06:53:18.119Z,13.07
2023-03-24T06:54:18.142Z,13.29
2023-03-24T06:55:18.110Z,13.19
2023-03-24T06:56:18.141Z,13.23
2023-03-24T06:57:18.057Z,13.32
2023-03-24T06:58:18.087Z,13.54
2023-03-24T06:59:18.071Z,13.88
2023-03-24T07:00:18.028Z,14.21
2023-03-24T07:01:18.098Z,14.61
2023-03-24T07:02:18.033Z,14.69
2023-03-24T07:03:18.079Z,14.52
2023-03-24T07:04:18.065Z,14.35
2023-03-24T07:05:18.004Z,14.57
2023-03-24T07:06:17.996Z,15.13
2023-03-24T07:07:44.824Z,15.28
2023-03-24T07:08:36.487Z,15.17
2023-03-24T07:09:19.958Z,14.88
2023-03-24T07:10:17.938Z,14.94
2023-03-24T07:11:17.938Z,15.31
2023-03-24T07:12:17.967Z,15.93
2023-03-24T07:13:17.907Z,16.34
2023-03-24T07:14:17.910Z,16.41
2023-03-24T07:15:17.912Z,16.30
2023-03-24T07:16:17.910Z,15.94
2023-03-24T07:17:17.958Z,15.90
2023-03-24T07:18:17.917Z,16.01
2023-03-24T07:19:17.852Z,16.00
2023-03-24T07:20:17.835Z,15.84
2023-03-24T07:21:17.829Z,16.08
2023-03-24T07:22:17.848Z,16.00
2023-03-24T07:23:17.822Z,15.62
2023-03-24T07:24:17.800Z,15.10
2023-03-24T07:25:17.811Z,14.86
2023-03-24T07:26:17.786Z,14.52
2023-03-24T07:27:17.755Z,14.62
2023-03-24T07:28:17.799Z,14.54
2023-03-24T07:29:17.756Z,14.64
2023-03-24T07:30:20.570Z,14.95
2023-03-24T07:31:17.792Z,15.31
2023-03-24T07:32:17.724Z,15.69
2023-03-24T07:33:17.785Z,15.69
2023-03-24T07:34:17.686Z,15.41
2023-03-24T07:35:17.710Z,15.17
2023-03-24T07:36:17.730Z,15.29
2023-03-24T07:37:17.712Z,15.59
2023-03-24T07:38:17.687Z,15.92
2023-03-24T07:39:17.634Z,16.14
2023-03-24T07:40:17.674Z,16.14
2023-03-24T07:41:17.632Z,16.07
2023-03-24T07:42:17.677Z,16.08
2023-03-24T07:43:17.666Z,16.01
2023-03-24T07:44:17.593Z,15.97
2023-03-24T07:45:17.613Z,16.05
2023-03-24T07:46:17.686Z,15.87
2023-03-24T07:47:18.589Z,15.83
2023-03-24T07:48:17.581Z,15.65
2023-03-24T07:49:19.928Z,15.90
2023-03-24T07:50:18.557Z,15.89
2023-03-24T07:51:17.528Z,16.20
2023-03-24T07:52:17.581Z,16.35
2023-03-24T07:53:17.532Z,16.70
2023-03-24T07:54:17.544Z,16.88
2023-03-24T07:55:17.550Z,17.03
2023-03-24T07:56:17.532Z,16.68
2023-03-24T07:57:17.587Z,16.82
2023-03-24T07:58:17.890Z,16.82
2023-03-24T07:59:17.518Z,16.58
2023-03-24T08:00:17.437Z,16.53
2023-03-24T08:02:44.888Z,16.20
2023-03-24T08:03:44.887Z,15.90
2023-03-24T08:04:44.781Z,15.62
2023-03-24T08:05:44.763Z,15.41
2023-03-24T08:06:44.718Z,15.19
2023-03-24T08:07:44.787Z,15.23
2023-03-24T08:08:44.736Z,15.25
2023-03-24T08:09:44.705Z,15.13
2023-03-24T08:10:44.680Z,15.02
2023-03-24T08:11:44.659Z,15.17
2023-03-24T08:12:45.790Z,15.13
2023-03-24T08:13:45.799Z,15.13
2023-03-24T08:14:45.787Z,14.99
2023-03-24T08:15:46.011Z,14.99
2023-03-24T08:16:45.757Z,15.01
2023-03-24T08:17:45.741Z,14.91
2023-03-24T08:18:45.712Z,14.96
2023-03-24T08:19:58.506Z,15.03
2023-03-24T08:20:47.743Z,15.19
2023-03-24T08:21:45.687Z,15.06
2023-03-24T08:22:45.664Z,14.94
2023-03-24T08:23:45.676Z,14.99
2023-03-24T08:24:45.649Z,15.01
2023-03-24T08:25:45.977Z,15.07
2023-03-24T08:26:45.653Z,15.20
2023-03-24T08:27:45.652Z,15.25
2023-03-24T08:28:45.592Z,15.19
2023-03-24T08:29:45.626Z,15.14
2023-03-24T08:30:45.688Z,15.19
2023-03-24T08:31:45.637Z,15.36
2023-03-24T08:32:45.609Z,15.32
2023-03-24T08:33:45.579Z,15.39
2023-03-24T08:34:45.544Z,15.38
2023-03-24T08:35:45.786Z,15.35
2023-03-24T08:36:45.542Z,15.28
2023-03-24T08:37:45.509Z,15.21
2023-03-24T08:38:45.535Z,15.19
2023-03-24T08:39:45.512Z,15.11
2023-03-24T08:40:45.516Z,15.19
2023-03-24T08:41:45.506Z,15.10
2023-03-24T08:42:45.539Z,15.25
2023-03-24T08:43:45.486Z,15.09
2023-03-24T08:44:45.449Z,15.06
2023-03-24T08:45:45.556Z,15.03
2023-03-24T08:46:45.481Z,14.83
2023-03-24T08:47:45.437Z,14.51
2023-03-24T08:48:45.415Z,14.25
2023-03-24T08:49:45.441Z,14.09
2023-03-24T08:50:45.397Z,13.81
2023-03-24T08:51:45.551Z,13.66
2023-03-24T08:52:45.413Z,13.54
2023-03-24T08:53:45.373Z,13.41
2023-03-24T08:54:45.379Z,13.30
2023-03-24T08:55:45.685Z,13.05
2023-03-24T08:56:45.358Z,13.00
2023-03-24T08:57:45.303Z,12.79
2023-03-24T08:58:45.342Z,12.87
2023-03-24T08:59:45.313Z,12.86
2023-03-24T09:00:45.342Z,12.70
2023-03-24T09:01:45.309Z,12.52
2023-03-24T09:02:45.313Z,12.38
2023-03-24T09:03:45.279Z,12.57
2023-03-24T09:04:45.265Z,12.59
2023-03-24T09:05:45.288Z,12.41
2023-03-24T09:06:45.249Z,12.47
2023-03-24T09:07:45.215Z,12.50
2023-03-24T09:08:45.224Z,12.49
2023-03-24T09:09:45.201Z,12.53
2023-03-24T09:10:45.204Z,12.54
2023-03-24T09:11:45.235Z,12.67
2023-03-24T09:12:45.184Z,12.56
2023-03-24T09:13:45.153Z,12.74
2023-03-24T09:14:45.151Z,12.70
2023-03-24T09:15:45.293Z,12.74
2023-03-24T09:16:46.153Z,12.64
2023-03-24T09:17:45.172Z,12.68
2023-03-24T09:18:45.177Z,12.68
2023-03-24T09:19:45.150Z,12.50
2023-03-24T09:20:45.124Z,12.59
2023-03-24T09:21:45.090Z,12.50
2023-03-24T09:22:45.139Z,12.52
2023-03-24T09:23:45.109Z,12.59
2023-03-24T09:24:45.061Z,12.49
2023-03-24T09:25:45.096Z,12.62
2023-03-24T09:26:45.070Z,12.49
2023-03-24T09:27:45.107Z,12.49
2023-03-24T09:28:45.087Z,12.46
2023-03-24T09:29:48.135Z,12.46
2023-03-24T09:30:45.077Z,12.39
2023-03-24T09:31:45.088Z,12.28
2023-03-24T09:32:45.090Z,12.35
2023-03-24T09:33:44.964Z,12.34
2023-03-24T09:34:44.981Z,12.32
2023-03-24T09:35:45.037Z,12.29
2023-03-24T09:36:45.046Z,12.23
2023-03-24T09:37:45.035Z,12.13
2023-03-24T09:38:44.935Z,12.21
2023-03-24T09:39:44.911Z,12.17
2023-03-24T09:40:44.875Z,12.27
2023-03-24T09:41:44.927Z,12.21
2023-03-24T09:42:46.599Z,12.17
2023-03-24T09:43:44.914Z,12.04
2023-03-24T09:44:44.869Z,12.05
2023-03-24T09:45:44.864Z,12.09
2023-03-24T09:46:44.877Z,12.10
2023-03-24T09:47:44.841Z,12.10
2023-03-24T09:48:44.872Z,12.07
2023-03-24T09:49:44.829Z,12.01
2023-03-24T09:50:44.815Z,12.07
2023-03-24T09:51:44.817Z,11.79
2023-03-24T09:52:44.887Z,11.86
2023-03-24T09:53:44.784Z,11.83
2023-03-24T09:54:44.836Z,11.80
2023-03-24T09:55:44.770Z,11.75
2023-03-24T09:56:44.780Z,11.83
2023-03-24T09:57:44.748Z,11.91
2023-03-24T09:58:44.734Z,11.91
2023-03-24T09:59:44.725Z,11.85
2023-03-24T10:00:44.735Z,11.99
2023-03-24T10:01:44.722Z,11.82
2023-03-24T10:02:44.792Z,11.67
2023-03-24T10:03:44.828Z,11.58
2023-03-24T10:04:44.740Z,11.65
2023-03-24T10:05:44.632Z,11.60
2023-03-24T10:06:44.729Z,11.52
2023-03-24T10:07:44.640Z,11.58
2023-03-24T10:08:44.664Z,11.62
2023-03-24T10:09:44.642Z,11.60
2023-03-24T10:10:44.609Z,11.62
2023-03-24T10:11:44.641Z,11.70
2023-03-24T10:12:44.584Z,11.65
2023-03-24T10:13:44.592Z,11.69
2023-03-24T10:14:44.622Z,11.69
2023-03-24T10:15:44.580Z,11.61
2023-03-24T10:16:44.562Z,11.52
2023-03-24T10:17:44.667Z,11.58
2023-03-24T10:18:44.545Z,11.62
2023-03-24T10:19:44.531Z,11.73
2023-03-24T10:20:44.563Z,11.90
2023-03-24T10:21:44.565Z,11.95
2023-03-24T10:22:44.521Z,11.90
2023-03-24T10:23:44.511Z,11.91
2023-03-24T10:24:44.500Z,11.99
2023-03-24T10:25:44.488Z,11.99
2023-03-24T10:26:44.486Z,12.02
2023-03-24T10:27:44.472Z,12.05
2023-03-24T10:28:44.445Z,11.90
2023-03-24T10:29:44.424Z,11.99
2023-03-24T10:30:45.328Z,12.05
2023-03-24T10:31:45.568Z,12.02
2023-03-24T10:32:44.428Z,12.13
2023-03-24T10:33:44.400Z,12.12
2023-03-24T10:34:44.365Z,12.23
2023-03-24T10:35:44.382Z,12.29
2023-03-24T10:36:44.390Z,12.35
2023-03-24T10:37:44.360Z,12.45
2023-03-24T10:38:44.370Z,12.27
2023-03-24T10:39:45.269Z,12.16
2023-03-24T10:40:45.389Z,12.17
2023-03-24T10:41:44.313Z,12.14
2023-03-24T10:42:44.310Z,12.10
2023-03-24T10:43:44.288Z,12.10
2023-03-24T10:44:44.297Z,12.07
2023-03-24T10:45:44.368Z,11.95
2023-03-24T10:46:44.277Z,11.90
2023-03-24T10:47:44.323Z,11.88
2023-03-24T10:48:44.282Z,11.82
2023-03-24T10:49:44.278Z,11.79
2023-03-24T10:50:44.278Z,11.69
2023-03-24T10:51:44.263Z,11.78
2023-03-24T10:52:44.203Z,11.60
2023-03-24T10:53:44.221Z,11.61
2023-03-24T10:54:44.250Z,11.47
2023-03-24T10:55:44.175Z,11.39
2023-03-24T10:56:44.189Z,11.32
2023-03-24T10:57:44.192Z,11.29
2023-03-24T10:58:44.181Z,11.33
2023-03-24T10:59:44.197Z,11.39
2023-03-24T11:00:44.134Z,11.25
2023-03-24T11:01:44.187Z,11.27
2023-03-24T11:02:44.242Z,11.27
2023-03-24T11:03:44.146Z,11.10
2023-03-24T11:04:44.127Z,11.15
2023-03-24T11:05:44.075Z,11.14
2023-03-24T11:06:44.090Z,11.03
2023-03-24T11:07:44.059Z,11.04
2023-03-24T11:08:44.125Z,10.99
2023-03-24T11:09:44.032Z,11.02
2023-03-24T11:10:44.060Z,10.97
2023-03-24T11:11:44.031Z,11.00
2023-03-24T11:12:44.025Z,10.94
2023-03-24T11:13:44.053Z,10.85
2023-03-24T11:14:43.996Z,10.79
2023-03-24T11:15:43.996Z,10.88
2023-03-24T11:16:44.001Z,10.89
2023-03-24T11:17:44.050Z,10.96
2023-03-24T11:18:43.936Z,11.09
2023-03-24T11:19:43.961Z,11.11
2023-03-24T11:20:43.948Z,11.22
2023-03-24T11:21:43.986Z,11.47
2023-03-24T11:22:43.963Z,11.61
2023-03-24T11:23:43.986Z,11.61
2023-03-24T11:24:43.933Z,11.75
2023-03-24T11:25:43.967Z,11.72
2023-03-24T11:26:43.931Z,11.80
2023-03-24T11:27:43.923Z,11.90
2023-03-24T11:28:43.881Z,11.94
2023-03-24T11:29:43.868Z,12.14
2023-03-24T11:30:45.725Z,12.23
2023-03-24T11:31:44.942Z,12.29
2023-03-24T11:32:43.875Z,12.39
2023-03-24T11:33:43.818Z,12.32
2023-03-24T11:34:43.769Z,12.49
2023-03-24T11:35:44.957Z,12.57
2023-03-24T11:36:46.886Z,12.52
2023-03-24T11:37:44.758Z,12.68
2023-03-24T11:38:43.774Z,12.68
2023-03-24T11:39:43.728Z,12.54
2023-03-24T11:40:43.727Z,12.54
2023-03-24T11:41:43.720Z,12.57
2023-03-24T11:42:45.408Z,12.56
2023-03-24T11:43:44.717Z,12.67
2023-03-24T11:44:43.758Z,12.71
2023-03-24T11:45:43.691Z,12.67
2023-03-24T11:46:43.708Z,12.83
2023-03-24T11:47:43.723Z,12.71
2023-03-24T11:48:43.661Z,12.72
2023-03-24T11:49:43.669Z,12.70
2023-03-24T11:50:43.645Z,12.67
2023-03-24T11:51:43.637Z,12.67
2023-03-24T11:52:43.631Z,12.65
2023-03-24T11:53:43.605Z,12.64
2023-03-24T11:54:43.595Z,12.83
2023-03-24T11:55:43.608Z,12.92
2023-03-24T11:56:43.656Z,12.90
2023-03-24T11:57:43.622Z,12.92
2023-03-24T11:58:43.590Z,12.83
2023-03-24T11:59:43.571Z,12.95
2023-03-24T12:00:43.533Z,12.78
2023-03-24T12:01:43.534Z,12.64
2023-03-24T12:02:43.566Z,12.64
2023-03-24T12:03:43.617Z,12.57
2023-03-24T12:04:43.525Z,12.60
2023-03-24T12:05:43.538Z,12.60
2023-03-24T12:06:43.493Z,12.60
2023-03-24T12:07:43.465Z,12.59
2023-03-24T12:08:43.503Z,12.50
2023-03-24T12:09:43.432Z,12.62
2023-03-24T12:10:43.468Z,12.67
2023-03-24T12:11:43.433Z,12.62
2023-03-24T12:12:43.411Z,12.50
2023-03-24T12:13:43.412Z,12.39
2023-03-24T12:14:43.508Z,12.29
2023-03-24T12:15:43.423Z,12.38
2023-03-24T12:16:43.435Z,12.45
2023-03-24T12:17:43.553Z,12.62
2023-03-24T12:18:43.491Z,12.82
2023-03-24T12:19:43.331Z,12.92
2023-03-24T12:20:43.368Z,13.17
2023-03-24T12:21:43.422Z,13.39
2023-03-24T12:22:43.350Z,13.46
2023-03-24T12:23:43.352Z,13.60
2023-03-24T12:24:43.353Z,13.49
2023-03-24T12:25:43.279Z,13.38
2023-03-24T12:26:43.278Z,13.17
2023-03-24T12:27:43.304Z,13.19
2023-03-24T12:28:43.281Z,13.10
2023-03-24T12:29:43.295Z,13.23
2023-03-24T12:30:43.261Z,13.17
2023-03-24T12:31:43.322Z,13.22
2023-03-24T12:32:43.296Z,13.14
2023-03-24T12:33:43.211Z,13.26
2023-03-24T12:34:43.262Z,13.36
2023-03-24T12:35:43.247Z,13.29
2023-03-24T12:36:43.210Z,13.22
2023-03-24T12:37:43.172Z,13.36
2023-03-24T12:38:43.141Z,13.41
2023-03-24T12:39:43.210Z,13.59
2023-03-24T12:40:43.153Z,13.84
2023-03-24T12:41:43.163Z,14.12
2023-03-24T12:42:43.170Z,14.51
2023-03-24T12:43:43.096Z,14.75
2023-03-24T12:44:43.145Z,14.72
2023-03-24T12:45:43.130Z,14.64
2023-03-24T12:47:44.130Z,14.72
2023-03-24T12:48:43.065Z,14.86
2023-03-24T12:49:43.053Z,14.95
2023-03-24T12:50:43.111Z,15.02
2023-03-24T12:51:43.136Z,15.03
2023-03-24T12:52:43.816Z,15.25
2023-03-24T12:53:42.990Z,15.32
2023-03-24T12:54:43.015Z,15.23